createdAt,value
2017-04-10T08:41:56.086Z,28.64
2017-04-10T08:42:36.560Z,29.23
2017-04-10T08:43:18.085Z,29.26
2017-04-10T08:43:59.572Z,29.19
2017-04-10T08:44:40.291Z,29.46
2017-04-10T08:45:20.887Z,29.24
2017-04-10T08:46:01.434Z,28.96
2017-04-10T08:46:42.094Z,29.04
2017-04-10T08:47:22.721Z,29.26
2017-04-10T08:48:03.147Z,29.41
2017-04-10T08:48:43.747Z,29.8
2017-04-10T08:50:21.135Z,28.78
2017-04-10T08:51:01.598Z,28.34
2017-04-10T08:51:42.073Z,28.14
2017-04-10T08:52:24.271Z,28.04
2017-04-10T08:53:05.765Z,27.78
2017-04-10T08:53:46.883Z,27.54
2017-04-10T08:54:27.381Z,27.79
2017-04-10T08:55:07.894Z,27.82
2017-04-10T08:55:48.396Z,27.55
2017-04-10T08:56:28.962Z,27.62
2017-04-10T08:57:09.603Z,26.95
2017-04-10T08:57:50.241Z,27.29
2017-04-10T08:58:30.655Z,27.27
2017-04-10T08:59:11.184Z,27.49
2017-04-10T09:01:27.766Z,27.19
2017-04-10T09:02:09.488Z,27.28
2017-04-10T09:02:53.529Z,27.37
2017-04-10T09:03:35.555Z,27.46
2017-04-10T09:04:16.078Z,27.79
2017-04-10T09:04:56.816Z,27.88
2017-04-10T09:05:37.485Z,27.93
2017-04-10T09:06:18.034Z,27.74
2017-04-10T09:06:59.280Z,27.78
2017-04-10T09:07:39.828Z,27.62
2017-04-10T09:08:20.276Z,27.69
2017-04-10T09:09:02.497Z,27.81
2017-04-10T09:09:43.091Z,27.92
2017-04-10T09:10:23.584Z,27.87
2017-04-10T09:11:04.208Z,28.09
2017-04-10T09:11:45.637Z,28.34
2017-04-10T09:12:26.252Z,28.62
2017-04-10T09:13:07.427Z,28.46
2017-04-10T09:13:48.365Z,28.24
2017-04-10T09:14:28.904Z,28.96
2017-04-10T09:15:09.389Z,29.51
2017-04-10T09:15:50.806Z,28.85
2017-04-10T09:16:33.235Z,28.98
2017-04-10T09:17:15.342Z,29.28
2017-04-10T09:17:56.693Z,29.78
2017-04-10T09:18:37.176Z,29.7
2017-04-10T09:19:17.607Z,29.7
2017-04-10T09:19:58.118Z,29.23
2017-04-10T09:20:38.656Z,29.76
2017-04-10T09:21:19.140Z,29.63
2017-04-10T09:21:59.656Z,29.95
2017-04-10T09:22:40.188Z,29.51
2017-04-10T09:23:21.437Z,29.8
2017-04-10T09:24:02.715Z,29.92
2017-04-10T09:24:44.087Z,30.1
2017-04-10T09:25:24.515Z,29.57
2017-04-10T09:26:05.904Z,29.74
2017-04-10T09:26:46.391Z,30.07
2017-04-10T09:27:27.735Z,30.45
2017-04-10T09:28:09.092Z,30.43
2017-04-10T09:28:49.541Z,30.05
2017-04-10T09:29:30.041Z,29.64
2017-04-10T09:30:11.221Z,30.02
2017-04-10T09:30:52.380Z,30.42
2017-04-10T09:31:32.926Z,30.32
2017-04-10T09:33:10.417Z,29.78
2017-04-10T09:33:50.868Z,29.7
2017-04-10T09:34:31.365Z,28.89
2017-04-10T09:35:12.632Z,29.04
2017-04-10T09:35:53.113Z,28.89
2017-04-10T09:36:34.373Z,28.98
2017-04-10T09:37:14.850Z,29.34
2017-04-10T09:37:56.835Z,28.92
2017-04-10T09:38:37.267Z,28.67
2017-04-10T09:39:18.470Z,28.43
2017-04-10T09:40:00.691Z,28
2017-04-10T09:40:45.566Z,27.46
2017-04-10T09:41:27.658Z,27.7
2017-04-10T09:42:08.213Z,27.85
2017-04-10T09:42:49.146Z,27.99
2017-04-10T09:43:29.644Z,27.66
2017-04-10T09:44:10.851Z,27
2017-04-10T09:44:53.105Z,27.19
2017-04-10T09:45:33.613Z,27.24
2017-04-10T09:46:14.072Z,27.22
2017-04-10T09:46:56.246Z,27.47
2017-04-10T09:47:36.873Z,26.94
2017-04-10T09:48:17.313Z,26.92
2017-04-10T09:48:58.288Z,27.04
2017-04-10T09:49:38.795Z,27.34
2017-04-10T09:50:21.092Z,27.32
2017-04-10T09:51:02.358Z,27.18
2017-04-10T09:51:43.495Z,27.29
2017-04-10T09:52:24.808Z,27.29
2017-04-10T09:53:05.253Z,27.28
2017-04-10T09:53:45.726Z,27.39
2017-04-10T09:55:43.398Z,27.67
2017-04-10T09:56:23.873Z,28.18
2017-04-10T09:57:04.399Z,28.14
2017-04-10T09:57:44.799Z,28.46
2017-04-10T09:59:32.600Z,29.06
2017-04-10T10:00:13.058Z,29.05
2017-04-10T10:00:53.526Z,28.95
2017-04-10T10:01:34.031Z,29.67
2017-04-10T10:02:14.488Z,29.48
2017-04-10T10:02:55.111Z,29.64
2017-04-10T10:03:35.583Z,29.63
2017-04-10T10:04:15.998Z,29.68
2017-04-10T10:04:56.455Z,29.86
2017-04-10T10:05:36.888Z,30.53
2017-04-10T10:06:17.430Z,31.2
2017-04-10T10:06:57.888Z,30.89
2017-04-10T10:07:38.370Z,31.17
2017-04-10T10:08:18.883Z,31.02
2017-04-10T10:08:59.365Z,31.29
2017-04-10T10:09:39.878Z,30.84
2017-04-10T10:10:21.122Z,31.16
2017-04-10T10:11:01.605Z,30.97
2017-04-10T10:11:42.195Z,31.46
2017-04-10T10:12:22.686Z,32.3
2017-04-10T10:13:03.320Z,32.82
2017-04-10T10:13:43.913Z,32.92
2017-04-10T10:14:24.519Z,32.85
2017-04-10T10:15:05.053Z,33.29
2017-04-10T10:15:45.644Z,33.63
2017-04-10T10:16:26.335Z,32.94
2017-04-10T10:17:06.967Z,33.14
2017-04-10T10:17:47.635Z,33.09
2017-04-10T10:18:28.230Z,33.06
2017-04-10T10:19:08.836Z,32.93
2017-04-10T10:19:49.447Z,33.07
2017-04-10T10:20:30.073Z,33.6
2017-04-10T10:21:10.695Z,33.01
2017-04-10T10:21:51.442Z,33.15
2017-04-10T10:22:32.033Z,33.86
2017-04-10T10:23:12.642Z,33.95
2017-04-10T10:23:53.227Z,34.58
2017-04-10T10:24:33.826Z,35.16
2017-04-10T10:25:14.460Z,34.89
2017-04-10T10:25:55.125Z,34.54
2017-04-10T10:26:35.664Z,34.12
2017-04-10T10:27:16.143Z,34.47
2017-04-10T10:27:56.619Z,34.17
2017-04-10T10:28:37.136Z,34.43
2017-04-10T10:29:17.635Z,33.71
2017-04-10T10:29:58.116Z,33.54
2017-04-10T10:30:38.632Z,33.71
2017-04-10T10:31:19.080Z,33.37
2017-04-10T10:31:59.569Z,32.62
2017-04-10T10:32:40.070Z,33.11
2017-04-10T10:33:20.602Z,32.96
2017-04-10T10:34:01.095Z,32.32
2017-04-10T10:34:41.700Z,32.13
2017-04-10T10:35:22.131Z,32.87
2017-04-10T10:36:02.693Z,33.49
2017-04-10T10:36:43.149Z,32.96
2017-04-10T10:37:23.597Z,32.47
2017-04-10T10:38:04.127Z,32.82
2017-04-10T10:38:44.633Z,32.5
2017-04-10T10:39:25.193Z,32.88
2017-04-10T10:40:05.647Z,33.65
2017-04-10T10:40:46.215Z,34.53
2017-04-10T10:41:27.021Z,34.91
2017-04-10T10:42:07.617Z,34.94
2017-04-10T10:42:48.071Z,34.64
2017-04-10T10:43:28.584Z,34.49
2017-04-10T10:44:09.095Z,34.58
2017-04-10T10:44:53.750Z,35.28
2017-04-10T10:45:34.230Z,34.65
2017-04-10T10:46:14.744Z,33.98
2017-04-10T10:46:55.235Z,33.69
2017-04-10T10:47:35.727Z,33.68
2017-04-10T10:48:16.191Z,34.25
2017-04-10T10:48:56.715Z,34.49
2017-04-10T10:49:38.008Z,34.47
2017-04-10T10:50:18.503Z,35.28
2017-04-10T10:50:59.003Z,34.46
2017-04-10T10:51:39.473Z,33.98
2017-04-10T10:52:19.927Z,33.79
2017-04-10T10:53:00.422Z,33.95
2017-04-10T10:53:40.907Z,33.57
2017-04-10T10:54:21.404Z,32.85
2017-04-10T10:55:02.023Z,32.78
2017-04-10T10:55:42.488Z,33.87
2017-04-10T10:56:23.842Z,33.49
2017-04-10T10:57:05.109Z,34.24
2017-04-10T10:57:45.663Z,34.05
2017-04-10T10:58:26.163Z,33.84
2017-04-10T11:00:03.635Z,34.46
2017-04-10T11:00:44.011Z,34.72
2017-04-10T11:01:24.984Z,34.84
2017-04-10T11:02:05.496Z,35.04
2017-04-10T11:02:46.016Z,34.81
2017-04-10T11:03:26.518Z,35.53
2017-04-10T11:04:06.971Z,34.16
2017-04-10T11:04:47.541Z,34.66
2017-04-10T11:05:27.977Z,35.04
2017-04-10T11:06:08.466Z,34.7
2017-04-10T11:06:49.004Z,35.03
2017-04-10T11:07:29.530Z,34.97
2017-04-10T11:08:10.051Z,34.94
2017-04-10T11:08:50.512Z,35.56
2017-04-10T11:09:30.938Z,35.82
2017-04-10T11:10:11.458Z,35.77
2017-04-10T11:10:51.896Z,35.31
2017-04-10T11:12:44.742Z,35.7
2017-04-10T11:13:25.142Z,36.46
2017-04-10T11:15:37.868Z,35.55
2017-04-10T11:16:18.393Z,35.92
2017-04-10T11:16:58.932Z,36.19
2017-04-10T11:17:39.439Z,36.87
2017-04-10T11:18:19.956Z,36.73
2017-04-10T11:19:00.470Z,36.32
2017-04-10T11:20:48.440Z,35.18
2017-04-10T11:21:28.851Z,35.31
2017-04-10T11:22:10.195Z,36.68
2017-04-10T11:22:50.818Z,36.78
2017-04-10T11:24:49.329Z,36.8
2017-04-10T11:25:29.845Z,36.68
2017-04-10T11:26:10.317Z,35.75
2017-04-10T11:26:50.835Z,36.43
2017-04-10T11:27:31.421Z,35.85
2017-04-10T11:28:11.868Z,36.81
2017-04-10T11:28:52.333Z,35.97
2017-04-10T11:29:32.820Z,37.43
2017-04-10T11:30:13.277Z,37.05
2017-04-10T11:30:53.766Z,37.06
2017-04-10T11:31:34.204Z,37.05
2017-04-10T11:32:14.680Z,37.47
2017-04-10T11:32:55.158Z,36.25
2017-04-10T11:33:35.676Z,36.65
2017-04-10T11:34:16.185Z,36.19
2017-04-10T11:34:56.726Z,36.87
2017-04-10T11:35:37.396Z,36.85
2017-04-10T11:36:17.959Z,36.54
2017-04-10T11:36:58.522Z,36.56
2017-04-10T11:37:39.108Z,36.35
2017-04-10T11:38:19.721Z,36.68
2017-04-10T11:39:00.314Z,36.93
2017-04-10T11:39:40.824Z,37.06
2017-04-10T11:40:21.289Z,35.97
2017-04-10T11:41:01.813Z,35.96
2017-04-10T11:41:42.325Z,36
2017-04-10T11:42:22.804Z,36.03
2017-04-10T11:43:03.316Z,36.27
2017-04-10T11:43:43.921Z,37.13
2017-04-10T11:44:25.369Z,37.5
2017-04-10T11:45:05.944Z,36.98
2017-04-10T11:45:46.609Z,36.2
2017-04-10T11:46:27.153Z,36.66
2017-04-10T11:47:07.670Z,37.22
2017-04-10T11:47:48.345Z,36.65
2017-04-10T11:48:28.750Z,36.49
2017-04-10T11:49:09.310Z,36.9
2017-04-10T11:49:49.964Z,36.15
2017-04-10T11:50:30.583Z,36.29
2017-04-10T11:51:11.272Z,36.19
2017-04-10T11:51:51.908Z,36.07
2017-04-10T11:52:32.409Z,36.32
2017-04-10T11:53:12.885Z,35.8
2017-04-10T11:53:53.376Z,35.65
2017-04-10T11:54:33.806Z,35.8
2017-04-10T11:55:14.320Z,36.17
2017-04-10T11:56:51.916Z,36.43
2017-04-10T11:57:32.212Z,35.97
2017-04-10T11:59:24.890Z,37.79
2017-04-10T12:00:05.286Z,37.39
2017-04-10T12:00:45.781Z,36.8
2017-04-10T12:01:26.266Z,36.2
2017-04-10T12:02:06.738Z,36.01
2017-04-10T12:02:47.233Z,35.72
2017-04-10T12:03:27.751Z,36.35
2017-04-10T12:04:08.214Z,37.12
2017-04-10T12:04:48.723Z,37.81
2017-04-10T12:05:29.234Z,38.23
2017-04-10T12:06:09.712Z,38.57
2017-04-10T12:06:50.970Z,38.98
2017-04-10T12:07:31.426Z,39.41
2017-04-10T12:08:11.923Z,40.15
2017-04-10T12:08:52.390Z,40.98
2017-04-10T12:09:32.862Z,41.54
2017-04-10T12:10:13.353Z,39.48
2017-04-10T12:10:53.853Z,40.13
2017-04-10T12:11:34.367Z,38.18
2017-04-10T12:12:14.834Z,37.78
2017-04-10T12:12:55.334Z,38.15
2017-04-10T12:13:35.774Z,38.18
2017-04-10T12:15:28.474Z,38.68
2017-04-10T12:16:08.982Z,39.62
2017-04-10T12:16:49.470Z,39.3
2017-04-10T12:17:29.909Z,39.59
2017-04-10T12:18:10.434Z,38.74
2017-04-10T12:18:52.766Z,37.75
2017-04-10T12:20:30.625Z,38.09
2017-04-10T12:21:11.207Z,38.15
2017-04-10T12:21:51.650Z,38.32
2017-04-10T12:22:32.127Z,38.95
2017-04-10T12:24:29.796Z,38.23
2017-04-10T12:25:10.237Z,38.13
2017-04-10T12:25:50.757Z,38.37
2017-04-10T12:26:31.253Z,39.29
2017-04-10T12:27:11.701Z,38.68
2017-04-10T12:27:52.136Z,38.47
2017-04-10T12:29:39.682Z,38.49
2017-04-10T12:30:20.137Z,38.49
2017-04-10T12:31:00.646Z,39.6
2017-04-10T12:31:41.106Z,40.31
2017-04-10T12:32:21.676Z,40.12
2017-04-10T12:33:02.156Z,39.21
2017-04-10T12:34:49.820Z,39.32
2017-04-10T12:35:30.874Z,39.23
2017-04-10T12:36:11.390Z,39.45
2017-04-10T12:36:51.882Z,39.13
2017-04-10T12:37:32.289Z,38.78
2017-04-10T12:38:12.771Z,39.06
2017-04-10T12:38:53.272Z,39.47
2017-04-10T12:39:33.793Z,39.55
2017-04-10T12:40:14.289Z,39.41
2017-04-10T12:40:54.799Z,39.79
2017-04-10T12:42:47.416Z,39.11
2017-04-10T12:43:27.830Z,38.56
2017-04-10T12:44:08.350Z,37.44
2017-04-10T12:44:48.848Z,37.02
2017-04-10T12:45:30.226Z,37.7
2017-04-10T12:46:10.725Z,38.25
2017-04-10T12:46:51.185Z,38.65
2017-04-10T12:47:31.658Z,37.76
2017-04-10T12:49:44.471Z,36.5
2017-04-10T12:50:24.937Z,36.95
2017-04-10T12:51:05.390Z,36.47
2017-04-10T12:51:45.931Z,36.46
2017-04-10T12:52:26.369Z,37.36
2017-04-10T12:54:24.091Z,38.22
2017-04-10T12:55:04.623Z,38.69
2017-04-10T12:57:02.227Z,38.84
2017-04-10T12:57:42.887Z,38.69
2017-04-10T12:58:23.389Z,38.3
2017-04-10T12:59:04.067Z,37.12
2017-04-10T12:59:44.575Z,37.06
2017-04-10T13:00:25.029Z,37.03
2017-04-10T13:01:05.498Z,37.15
2017-04-10T13:01:45.982Z,36.83
2017-04-10T13:02:26.409Z,36.75
2017-04-10T13:03:06.958Z,36.37
2017-04-10T13:03:47.411Z,37.6
2017-04-10T13:04:27.886Z,36.66
2017-04-10T13:05:08.394Z,37.75
2017-04-10T13:05:48.895Z,37.22
2017-04-10T13:06:29.345Z,37
2017-04-10T13:07:09.910Z,36.37
2017-04-10T13:07:50.389Z,36.32
2017-04-10T13:08:30.853Z,35.36
2017-04-10T13:09:11.352Z,35.92
2017-04-10T13:09:51.855Z,36.03
2017-04-10T13:10:32.409Z,35.26
2017-04-10T13:11:12.796Z,35.26
2017-04-10T13:11:53.457Z,36.25
2017-04-10T13:12:33.995Z,36.93
2017-04-10T13:13:15.111Z,37.56
2017-04-10T13:13:55.628Z,37.76
2017-04-10T13:14:36.181Z,37.78
2017-04-10T13:15:16.733Z,38.13
2017-04-10T13:15:57.317Z,38.65
2017-04-10T13:16:37.868Z,38.81
2017-04-10T13:17:18.461Z,38.69
2017-04-10T13:17:58.934Z,37.75
2017-04-10T13:18:39.377Z,38.11
2017-04-10T13:19:19.911Z,38.53
2017-04-10T13:20:00.400Z,38.93
2017-04-10T13:20:40.829Z,38.54
2017-04-10T13:22:18.601Z,36
2017-04-10T13:22:59.958Z,36.17
2017-04-10T13:23:44.970Z,36.59
2017-04-10T13:24:25.879Z,36.35
2017-04-10T13:25:06.340Z,36.84
2017-04-10T13:25:46.887Z,36.64
2017-04-10T13:26:27.469Z,35.29
2017-04-10T13:27:09.020Z,35
2017-04-10T13:27:49.540Z,35.44
2017-04-10T13:28:30.195Z,34.7
2017-04-10T13:29:10.702Z,34.44
2017-04-10T13:29:51.174Z,34.22
2017-04-10T13:30:32.264Z,33.95
2017-04-10T13:31:12.804Z,33.56
2017-04-10T13:31:54.104Z,33.38
2017-04-10T13:32:34.471Z,33.63
2017-04-10T13:33:14.986Z,33.41
2017-04-10T13:33:55.596Z,33.23
2017-04-10T13:34:37.485Z,33.11
2017-04-10T13:35:18.928Z,32.56
2017-04-10T13:36:02.374Z,32.26
2017-04-10T13:36:42.858Z,32
2017-04-10T13:37:23.323Z,32.04
2017-04-10T13:38:03.868Z,32.33
2017-04-10T13:38:44.343Z,31.66
2017-04-10T13:39:24.864Z,31.95
2017-04-10T13:40:05.938Z,32.4
2017-04-10T13:40:46.434Z,32.67
2017-04-10T13:41:27.047Z,32.67
2017-04-10T13:42:07.452Z,33.12
2017-04-10T13:42:48.021Z,33.32
2017-04-10T13:43:28.465Z,33.76
2017-04-10T13:44:09.089Z,34.37
2017-04-10T13:44:50.560Z,34.05
2017-04-10T13:45:31.080Z,33.41
2017-04-10T13:46:11.658Z,33.42
2017-04-10T13:46:52.148Z,34
2017-04-10T13:47:32.677Z,33.47
2017-04-10T13:48:13.117Z,33.41
2017-04-10T13:48:53.577Z,33.6
2017-04-10T13:50:51.241Z,33.35
2017-04-10T13:51:31.703Z,34.27
2017-04-10T13:52:12.224Z,34.65
2017-04-10T13:52:52.677Z,35.11
2017-04-10T13:53:33.983Z,35.16
2017-04-10T13:54:14.464Z,35.47
2017-04-10T13:56:02.078Z,34.85
2017-04-10T13:56:42.516Z,35.65
2017-04-10T13:57:22.973Z,35.85
2017-04-10T13:58:03.442Z,36.59
2017-04-10T13:58:43.892Z,36.8
2017-04-10T13:59:24.367Z,37.06
2017-04-10T14:00:04.885Z,36.93
2017-04-10T14:00:45.386Z,36.5
2017-04-10T14:01:25.871Z,36.93
2017-04-10T14:02:06.381Z,35.15
2017-04-10T14:04:04.087Z,35.78
2017-04-10T14:04:44.554Z,35.92
2017-04-10T14:05:25.023Z,34.82
2017-04-10T14:06:05.479Z,35.03
2017-04-10T14:07:53.399Z,34.53
2017-04-10T14:08:33.729Z,34.75
2017-04-10T14:09:15.116Z,33.87
2017-04-10T14:09:55.956Z,34.35
2017-04-10T14:11:49.031Z,33.31
2017-04-10T14:12:29.499Z,32.92
2017-04-10T14:13:10.144Z,33.01
2017-04-10T14:13:50.717Z,32.04
2017-04-10T14:14:31.363Z,31.06
2017-04-10T14:15:12.010Z,31.34
2017-04-10T14:15:52.671Z,30.88
2017-04-10T14:16:33.260Z,31.8
2017-04-10T14:17:13.872Z,32.85
2017-04-10T14:17:54.549Z,32.52
2017-04-10T14:18:35.192Z,33
2017-04-10T14:19:15.658Z,32.5
2017-04-10T14:20:53.218Z,32.99
2017-04-10T14:21:33.513Z,32.55
2017-04-10T14:22:14.066Z,32.78
2017-04-10T14:22:54.533Z,32.04
2017-04-10T14:23:35.146Z,31.58
2017-04-10T14:24:15.679Z,32.04
2017-04-10T14:24:56.516Z,31.85
2017-04-10T14:25:37.640Z,31.58
2017-04-10T14:26:18.170Z,32.65
2017-04-10T14:26:58.784Z,31.63
2017-04-10T14:27:39.373Z,30.69
2017-04-10T14:28:19.868Z,29.9
2017-04-10T14:29:00.489Z,30.77
2017-04-10T14:29:41.002Z,30.88
2017-04-10T14:30:21.569Z,31.01
2017-04-10T14:31:02.308Z,31.17
2017-04-10T14:31:42.792Z,31.47
2017-04-10T14:32:23.349Z,31.46
2017-04-10T14:33:03.949Z,31.21
2017-04-10T14:33:44.314Z,32.01
2017-04-10T14:34:24.812Z,32.28
2017-04-10T14:36:02.233Z,32.19
2017-04-10T14:36:42.709Z,32.87
2017-04-10T14:37:23.178Z,32.97
2017-04-10T14:38:03.674Z,33.18
2017-04-10T14:38:44.135Z,33.14
2017-04-10T14:39:24.613Z,33.11
2017-04-10T14:40:05.198Z,32.65
2017-04-10T14:40:45.678Z,32.01
2017-04-10T14:41:26.202Z,32.52
2017-04-10T14:43:03.580Z,31.23
2017-04-10T14:43:44.059Z,30.55
2017-04-10T14:44:24.546Z,29.94
2017-04-10T14:45:05.066Z,29.78
2017-04-10T14:46:42.475Z,27.87
2017-04-10T14:47:23.151Z,27.94
2017-04-10T14:48:03.640Z,28.43
2017-04-10T14:48:44.144Z,28.64
2017-04-10T14:49:24.640Z,28.71
2017-04-10T14:50:05.106Z,29.3
2017-04-10T14:50:45.596Z,29.94
2017-04-10T14:51:26.018Z,29.98
2017-04-10T14:52:06.606Z,30.07
2017-04-10T14:52:47.086Z,29.49
2017-04-10T14:53:27.637Z,29.67
2017-04-10T14:54:08.042Z,29.71
2017-04-10T14:54:48.528Z,30.29
2017-04-10T14:55:29.047Z,30.1
2017-04-10T14:56:09.584Z,29.8
2017-04-10T14:56:50.029Z,28.98
2017-04-10T14:57:30.494Z,28.44
2017-04-10T14:58:10.995Z,28.58
2017-04-10T14:58:51.456Z,28.29
2017-04-10T14:59:31.926Z,28.9
2017-04-10T15:00:12.369Z,28.98
2017-04-10T15:00:52.852Z,28.73
2017-04-10T15:01:33.294Z,28.86
2017-04-10T15:03:46.189Z,28.93
2017-04-10T15:04:26.695Z,28.68
2017-04-10T15:05:07.141Z,28.55
2017-04-10T15:05:47.593Z,28.37
2017-04-10T15:06:28.085Z,28.31
2017-04-10T15:07:08.522Z,28.44
2017-04-10T15:07:48.996Z,28.68
2017-04-10T15:08:29.412Z,28.27
2017-04-10T15:09:10.006Z,28.31
2017-04-10T15:09:50.549Z,28.11
2017-04-10T15:10:30.976Z,28.15
2017-04-10T15:11:11.500Z,27.57
2017-04-10T15:11:51.993Z,27
2017-04-10T15:13:49.776Z,26.36
2017-04-10T15:14:30.229Z,25.98
2017-04-10T15:15:10.733Z,25.91
2017-04-10T15:15:51.262Z,26.12
2017-04-10T15:16:31.733Z,26.15
2017-04-10T15:17:12.201Z,26.52
2017-04-10T15:17:52.742Z,26.37
2017-04-10T15:19:45.467Z,26.21
2017-04-10T15:20:25.810Z,25.83
2017-04-10T15:21:06.291Z,25.67
2017-04-10T15:21:46.746Z,25.72
2017-04-10T15:22:27.235Z,25.6
2017-04-10T15:23:07.719Z,25.47
2017-04-10T15:23:48.635Z,25.75
2017-04-10T15:24:34.595Z,26.06
2017-04-10T15:25:18.493Z,26.37
2017-04-10T15:26:03.145Z,26.94
2017-04-10T15:26:50.529Z,27.18
2017-04-10T15:27:29.827Z,27.88
2017-04-10T15:28:11.081Z,28.18
2017-04-10T15:28:51.734Z,28.66
2017-04-10T15:29:32.139Z,28.51
2017-04-10T15:30:12.691Z,28.44
2017-04-10T15:30:53.146Z,28.33
2017-04-10T15:32:50.817Z,26.95
2017-04-10T15:33:31.304Z,26.66
2017-04-10T15:34:11.775Z,27.03
2017-04-10T15:34:52.275Z,26.02
2017-04-10T15:35:32.732Z,25.95
2017-04-10T15:36:13.335Z,25.25
2017-04-10T15:36:54.285Z,24.43
2017-04-10T15:37:34.669Z,24.57
2017-04-10T15:39:12.257Z,26.05
2017-04-10T15:39:52.667Z,26.4
2017-04-10T15:40:33.156Z,26.95
2017-04-10T15:41:13.621Z,27.34
2017-04-10T15:41:54.071Z,27.12
2017-04-10T15:42:34.603Z,27.18
2017-04-10T15:43:15.022Z,26.33
2017-04-10T15:43:55.504Z,25.6
2017-04-10T15:44:36.059Z,25.15
2017-04-10T15:45:16.530Z,24.71
2017-04-10T15:45:57.041Z,24.12
2017-04-10T15:46:37.514Z,24
2017-04-10T15:48:35.485Z,24.12
2017-04-10T15:49:15.652Z,23.83
2017-04-10T15:51:28.411Z,23.43
2017-04-10T15:52:08.855Z,22.7
2017-04-10T15:52:49.342Z,22.45
2017-04-10T15:54:47.015Z,22.79
2017-04-10T15:55:27.480Z,22.79
2017-04-10T15:56:07.899Z,23.04
2017-04-10T15:56:48.387Z,23.1
2017-04-10T15:57:28.855Z,23.19
2017-04-10T15:58:09.300Z,22.77
2017-04-10T15:58:49.788Z,22.8
2017-04-10T15:59:30.223Z,22.75
2017-04-10T16:00:11.433Z,22.85
2017-04-10T16:00:51.896Z,23.23
2017-04-10T16:01:32.358Z,23.66
2017-04-10T16:02:13.027Z,23.85
2017-04-10T16:02:53.544Z,23.66
2017-04-10T16:03:34.021Z,24.12
2017-04-10T16:05:31.705Z,23.91
2017-04-10T16:06:12.140Z,24.34
2017-04-10T16:06:52.692Z,24.8
2017-04-10T16:08:50.346Z,25
2017-04-10T16:09:30.777Z,24.67
2017-04-10T16:10:11.214Z,24.67
2017-04-10T16:10:51.705Z,24.46
2017-04-10T16:11:32.162Z,24.39
2017-04-10T16:12:12.619Z,23.97
2017-04-10T16:12:53.125Z,23.22
2017-04-10T16:13:34.339Z,22.27
2017-04-10T16:14:14.788Z,22.09
2017-04-10T16:14:55.210Z,22.12
2017-04-10T16:16:32.688Z,22.12
2017-04-10T16:17:13.096Z,22.12
2017-04-10T16:17:53.513Z,22
2017-04-10T16:18:34.008Z,21.71
2017-04-10T16:19:14.465Z,21.46
2017-04-10T16:19:54.983Z,21.16
2017-04-10T16:20:35.457Z,20.66
2017-04-10T16:21:15.911Z,20.66
2017-04-10T16:21:56.394Z,20.66
2017-04-10T16:22:36.834Z,20.7
2017-04-10T16:23:17.294Z,20.52
2017-04-10T16:23:57.769Z,20.51
2017-04-10T16:24:38.217Z,20.41
2017-04-10T16:25:18.681Z,20.57
2017-04-10T16:25:59.156Z,20.82
2017-04-10T16:26:39.642Z,20.8
2017-04-10T16:27:20.136Z,20.66
2017-04-10T16:28:00.615Z,20.62
2017-04-10T16:29:48.197Z,20.95
2017-04-10T16:30:28.603Z,20.94
2017-04-10T16:31:09.083Z,21.04
2017-04-10T16:31:49.490Z,21.04
2017-04-10T16:32:29.969Z,21.07
2017-04-10T16:33:10.462Z,20.98
2017-04-10T16:33:50.925Z,21.25
2017-04-10T16:34:31.404Z,20.89
2017-04-10T16:36:24.060Z,20.87
2017-04-10T16:37:04.421Z,20.55
2017-04-10T16:37:44.930Z,20.66
2017-04-10T16:38:25.357Z,20.98
2017-04-10T16:39:05.800Z,20.54
2017-04-10T16:39:46.339Z,20.57
2017-04-10T16:41:44.205Z,20.39
2017-04-10T16:42:24.453Z,20.08
2017-04-10T16:43:04.887Z,20.24
2017-04-10T16:43:45.354Z,20.28
2017-04-10T16:44:25.823Z,19.95
2017-04-10T16:45:06.283Z,20.01
2017-04-10T16:45:47.417Z,20.01
2017-04-10T16:46:27.873Z,19.96
2017-04-10T16:47:08.353Z,19.65
2017-04-10T16:49:21.115Z,19.71
2017-04-10T16:50:01.813Z,19.44
2017-04-10T16:50:42.447Z,19.69
2017-04-10T16:51:22.917Z,19.36
2017-04-10T16:52:03.411Z,19.41
2017-04-10T16:52:43.868Z,19.11
2017-04-10T16:53:24.312Z,19.14
2017-04-10T16:54:04.772Z,19.25
2017-04-10T16:54:45.922Z,18.9
2017-04-10T16:55:26.411Z,19.22
2017-04-10T16:56:06.873Z,18.95
2017-04-10T16:56:47.321Z,18.82
2017-04-10T16:58:25.306Z,18.73
2017-04-10T16:59:05.608Z,18.69
2017-04-10T17:00:43.122Z,18.66
2017-04-10T17:01:23.540Z,18.75
2017-04-10T17:02:04.028Z,18.6
2017-04-10T17:02:44.515Z,18.63
2017-04-10T17:03:24.973Z,18.52
2017-04-10T17:05:12.805Z,18.27
2017-04-10T17:05:53.216Z,18.45
2017-04-10T17:06:33.727Z,18.62
2017-04-10T17:07:14.159Z,18.42
2017-04-10T17:07:54.624Z,18.29
2017-04-10T17:10:07.571Z,18.12
2017-04-10T17:10:47.896Z,17.92
2017-04-10T17:11:28.357Z,17.95
2017-04-10T17:12:09.772Z,18.08
2017-04-10T17:12:50.217Z,18.12
2017-04-10T17:14:28.612Z,17.97
2017-04-10T17:15:08.873Z,17.93
2017-04-10T17:15:49.438Z,17.99
2017-04-10T17:16:29.901Z,17.84
2017-04-10T17:17:10.370Z,18.08
2017-04-10T17:17:50.821Z,18.11
2017-04-10T17:18:31.282Z,17.93
2017-04-10T17:19:11.707Z,17.95
2017-04-10T17:19:52.187Z,17.9
2017-04-10T17:20:32.659Z,18.1
2017-04-10T17:21:13.110Z,18.07
2017-04-10T17:21:53.511Z,17.95
2017-04-10T17:22:34.022Z,17.84
2017-04-10T17:23:14.438Z,17.79
2017-04-10T17:23:54.974Z,17.79
2017-04-10T17:24:35.538Z,17.63
2017-04-10T17:25:16.048Z,17.43
2017-04-10T17:25:56.469Z,17.43
2017-04-10T17:26:36.928Z,17.44
2017-04-10T17:27:17.482Z,17.52
2017-04-10T17:27:57.948Z,17.41
2017-04-10T17:28:38.381Z,17.66
2017-04-10T17:29:18.826Z,17.52
2017-04-10T17:29:59.351Z,17.54
2017-04-10T17:30:39.752Z,17.49
2017-04-10T17:31:20.201Z,17.43
2017-04-10T17:32:00.742Z,17.48
2017-04-10T17:32:41.185Z,17.48
2017-04-10T17:33:21.646Z,17.54
2017-04-10T17:34:02.100Z,17.22
2017-04-10T17:34:42.532Z,17.44
2017-04-10T17:35:22.998Z,17.36
2017-04-10T17:36:03.492Z,17.4
2017-04-10T17:36:43.937Z,17.49
2017-04-10T17:37:24.411Z,17.26
2017-04-10T17:38:04.846Z,17.21
2017-04-10T17:38:45.342Z,17.25
2017-04-10T17:40:22.926Z,17.34
2017-04-10T17:41:03.216Z,17.08
2017-04-10T17:41:43.652Z,17.06
2017-04-10T17:42:24.117Z,17.08
2017-04-10T17:43:04.598Z,17.11
2017-04-10T17:43:45.013Z,17.26
2017-04-10T17:45:32.597Z,17.23
2017-04-10T17:46:13.009Z,17.34
2017-04-10T17:46:53.475Z,17.12
2017-04-10T17:47:33.935Z,17
2017-04-10T17:48:14.380Z,17.03
2017-04-10T17:49:51.914Z,17.04
2017-04-10T17:50:32.371Z,17.11
2017-04-10T17:51:12.831Z,17.03
2017-04-10T17:52:50.477Z,16.71
2017-04-10T17:53:30.620Z,16.5
2017-04-10T17:54:11.096Z,16.43
2017-04-10T17:54:51.565Z,16.38
2017-04-10T17:56:28.981Z,16.09
2017-04-10T17:57:09.401Z,16.08
2017-04-10T17:57:49.871Z,16.01
2017-04-10T17:58:30.316Z,16.3
2017-04-10T17:59:10.775Z,16.11
2017-04-10T17:59:51.231Z,16.28
2017-04-10T18:00:31.621Z,16.33
2017-04-10T18:02:44.414Z,16.42
2017-04-10T18:03:24.800Z,16.12
2017-04-10T18:04:05.250Z,16.02
2017-04-10T18:04:45.717Z,15.89
2017-04-10T18:05:26.222Z,15.93
2017-04-10T18:06:06.678Z,16.09
2017-04-10T18:06:47.131Z,16.05
2017-04-10T18:08:24.716Z,16.08
2017-04-10T18:09:04.953Z,16.15
2017-04-10T18:09:45.422Z,16.12
2017-04-10T18:10:25.925Z,16.14
2017-04-10T18:11:06.910Z,16.07
2017-04-10T18:11:47.318Z,15.86
2017-04-10T18:12:27.764Z,16
2017-04-10T18:13:08.248Z,16.07
2017-04-10T18:14:45.689Z,16.11
2017-04-10T18:15:26.140Z,16.15
2017-04-10T18:16:06.595Z,16
2017-04-10T18:16:47.074Z,15.8
2017-04-10T18:17:27.537Z,15.93
2017-04-10T18:18:08.017Z,15.86
2017-04-10T18:19:55.556Z,15.74
2017-04-10T18:20:35.973Z,15.75
2017-04-10T18:21:16.437Z,15.72
2017-04-10T18:21:56.902Z,15.82
2017-04-10T18:22:37.377Z,16.04
2017-04-10T18:23:17.856Z,16.17
2017-04-10T18:25:05.646Z,16.08
2017-04-10T18:25:45.813Z,15.89
2017-04-10T18:26:26.294Z,15.97
2017-04-10T18:27:06.711Z,15.69
2017-04-10T18:27:47.178Z,15.64
2017-04-10T18:28:27.723Z,15.78
2017-04-10T18:29:08.155Z,15.82
2017-04-10T18:29:48.591Z,15.89
2017-04-10T18:30:29.039Z,15.78
2017-04-10T18:31:09.495Z,15.82
2017-04-10T18:31:49.985Z,15.64
2017-04-10T18:32:30.407Z,15.59
2017-04-10T18:33:10.835Z,15.5
2017-04-10T18:33:51.287Z,15.36
2017-04-10T18:34:31.719Z,15.34
2017-04-10T18:35:12.168Z,15.51
2017-04-10T18:35:52.615Z,15.64
2017-04-10T18:37:45.524Z,15.39
2017-04-10T18:38:27.410Z,15.5
2017-04-10T18:39:09.316Z,15.49
2017-04-10T18:39:51.226Z,15.41